Time;durP1;ratioP1;P1;durP2;ratioP2;P2;SDS_P1;SDS_P2;PMS_P1;PMS_P2;Temp;Humidity;BMP_temperature;BMP_pressure;BME280_temperature;BME280_humidity;BME280_pressure;Samples;Min_cycle;Max_cycle;Signal;HPM_P1;HPM_P2
2023/09/01 00:01:40;;;;;;;9.60;9.30;;;14.40;99.90;;;;;;6224428;23;20207;-77
2023/09/01 00:04:07;;;;;;;9.40;9.10;;;14.40;99.90;;;;;;6224590;23;20206;-76
2023/09/01 00:06:34;;;;;;;9.13;8.82;;;14.30;99.90;;;;;;6224546;23;20197;-78
2023/09/01 00:09:01;;;;;;;9.13;8.83;;;14.30;99.90;;;;;;6225629;23;20205;-77
2023/09/01 00:11:29;;;;;;;9.10;8.80;;;14.30;99.90;;;;;;6226703;23;20196;-78
2023/09/01 00:13:56;;;;;;;9.00;8.70;;;14.30;99.90;;;;;;6224494;23;20206;-77
2023/09/01 00:16:23;;;;;;;9.23;8.93;;;14.30;99.90;;;;;;6224558;23;20195;-76
2023/09/01 00:18:50;;;;;;;9.07;8.77;;;14.30;99.90;;;;;;6225053;23;20217;-77
2023/09/01 00:21:17;;;;;;;9.13;8.82;;;14.20;99.90;;;;;;6224907;23;20221;-77
2023/09/01 00:23:44;;;;;;;8.90;8.60;;;14.20;99.90;;;;;;6224645;23;20207;-77
2023/09/01 00:26:11;;;;;;;9.10;8.80;;;14.20;99.90;;;;;;6224383;23;20250;-77
2023/09/01 00:28:40;;;;;;;9.07;8.77;;;14.20;99.90;;;;;;6224205;23;20205;-77
2023/09/01 00:31:07;;;;;;;8.93;8.63;;;14.20;99.90;;;;;;6224906;23;20211;-77
2023/09/01 00:33:34;;;;;;;9.00;8.70;;;14.20;99.90;;;;;;6224017;23;20214;-76
2023/09/01 00:36:01;;;;;;;8.88;8.57;;;14.20;99.90;;;;;;6224601;23;20371;-76
2023/09/01 00:38:31;;;;;;;8.90;8.60;;;14.20;99.90;;;;;;6237492;23;20275;-76
2023/09/01 00:40:57;;;;;;;9.10;8.80;;;14.20;99.90;;;;;;6230574;23;20207;-78
2023/09/01 00:43:25;;;;;;;9.02;8.73;;;14.20;99.90;;;;;;6227938;23;20297;-76
2023/09/01 00:45:53;;;;;;;8.93;8.63;;;14.10;99.90;;;;;;6225140;23;20233;-77
2023/09/01 00:48:20;;;;;;;8.97;8.67;;;14.10;99.90;;;;;;6231349;23;20639;-77
2023/09/01 00:50:50;;;;;;;9.02;8.73;;;14.10;99.90;;;;;;6227631;23;20206;-78
2023/09/01 00:53:18;;;;;;;9.05;8.75;;;14.00;99.90;;;;;;6225855;23;20203;-78
2023/09/01 00:55:46;;;;;;;8.90;8.60;;;14.00;99.90;;;;;;6225781;23;20194;-77
2023/09/01 00:58:13;;;;;;;8.80;8.50;;;13.90;99.90;;;;;;6225794;23;20258;-77
2023/09/01 01:00:40;;;;;;;8.90;8.60;;;13.90;99.90;;;;;;6225697;23;20290;-78
2023/09/01 01:03:11;;;;;;;8.90;8.60;;;13.90;99.90;;;;;;6225760;23;20199;-77
2023/09/01 01:05:46;;;;;;;9.00;8.70;;;13.90;99.90;;;;;;6225913;23;20199;-76
2023/09/01 01:08:23;;;;;;;9.00;8.70;;;13.80;99.90;;;;;;6225632;23;20293;-78
2023/09/01 01:11:00;;;;;;;8.97;8.67;;;13.90;99.90;;;;;;6225411;23;20202;-77
2023/09/01 01:13:34;;;;;;;9.03;8.73;;;13.90;99.90;;;;;;6224363;23;20214;-78
2023/09/01 01:16:03;;;;;;;9.00;8.70;;;13.90;99.90;;;;;;6225084;23;20221;-77
2023/09/01 01:18:34;;;;;;;8.90;8.60;;;13.90;99.90;;;;;;6225171;23;20267;-78
2023/09/01 01:21:08;;;;;;;9.00;8.70;;;14.00;99.90;;;;;;6224581;23;20278;-77
2023/09/01 01:23:38;;;;;;;9.10;8.80;;;14.00;99.90;;;;;;6224722;23;20202;-78
2023/09/01 01:26:05;;;;;;;8.90;8.60;;;14.00;99.90;;;;;;6224768;23;20195;-78
2023/09/01 01:28:33;;;;;;;9.33;9.03;;;14.00;99.90;;;;;;6234527;23;20194;-77
2023/09/01 01:31:00;;;;;;;8.95;8.65;;;14.10;99.90;;;;;;6225702;23;20243;-77
2023/09/01 01:33:43;;;;;;;8.80;8.50;;;14.10;99.90;;;;;;6224445;23;20207;-78
2023/09/01 01:36:20;;;;;;;8.90;8.60;;;14.10;99.90;;;;;;6224542;23;20251;-77
2023/09/01 01:38:59;;;;;;;8.98;8.68;;;14.00;99.90;;;;;;6226158;23;20190;-78
2023/09/01 01:41:34;;;;;;;8.80;8.50;;;14.00;99.90;;;;;;6224424;23;20198;-77
2023/09/01 01:44:05;;;;;;;8.80;8.50;;;13.90;99.90;;;;;;6224219;23;20221;-78
2023/09/01 01:46:34;;;;;;;8.80;8.50;;;13.90;99.90;;;;;;6225229;23;20193;-77
2023/09/01 01:49:01;;;;;;;8.67;8.40;;;13.80;99.90;;;;;;6224580;23;20195;-77
2023/09/01 01:51:28;;;;;;;9.20;8.90;;;13.80;99.90;;;;;;6224783;23;20202;-78
2023/09/01 01:53:56;;;;;;;8.60;8.40;;;13.80;99.90;;;;;;6224830;23;20214;-77
2023/09/01 01:56:23;;;;;;;8.90;8.60;;;13.80;99.90;;;;;;6225235;23;20199;-77
2023/09/01 01:58:50;;;;;;;9.00;8.70;;;13.80;99.90;;;;;;6225168;23;20195;-78
2023/09/01 02:01:17;;;;;;;9.07;8.77;;;13.70;99.90;;;;;;6225611;23;20290;-78
2023/09/01 02:03:44;;;;;;;8.90;8.60;;;13.70;99.90;;;;;;6224263;23;20268;-77
2023/09/01 02:06:11;;;;;;;9.00;8.70;;;13.70;99.90;;;;;;6224999;23;20192;-77
2023/09/01 02:08:38;;;;;;;8.90;8.60;;;13.60;99.90;;;;;;6224357;23;20202;-77
2023/09/01 02:11:06;;;;;;;8.90;8.60;;;13.60;99.90;;;;;;6224133;23;20290;-77
2023/09/01 02:13:33;;;;;;;8.97;8.67;;;13.60;99.90;;;;;;6224314;23;20202;-77
2023/09/01 02:16:00;;;;;;;8.70;8.40;;;13.60;99.90;;;;;;6224251;23;20278;-78
2023/09/01 02:18:28;;;;;;;9.00;8.70;;;13.60;99.90;;;;;;6233534;23;20294;-78
2023/09/01 02:20:55;;;;;;;9.13;8.83;;;13.60;99.90;;;;;;6225273;23;20230;-78
2023/09/01 02:23:22;;;;;;;9.00;8.70;;;13.60;99.90;;;;;;6227100;23;20206;-79
2023/09/01 02:25:49;;;;;;;9.07;8.77;;;13.60;99.90;;;;;;6230030;23;20199;-77
2023/09/01 02:28:17;;;;;;;9.00;8.70;;;13.60;99.90;;;;;;6231800;23;20211;-77
2023/09/01 02:30:44;;;;;;;9.10;8.80;;;13.60;99.90;;;;;;6235273;23;20195;-78
2023/09/01 02:33:11;;;;;;;8.73;8.43;;;13.60;99.90;;;;;;6231958;23;20274;-76
2023/09/01 02:35:44;;;;;;;8.80;8.50;;;13.60;99.90;;;;;;6242658;23;20191;-77
2023/09/01 02:38:12;;;;;;;8.70;8.40;;;13.60;99.90;;;;;;6238185;23;20201;-77
2023/09/01 02:40:40;;;;;;;8.43;8.23;;;13.60;99.90;;;;;;6240302;23;20242;-77
2023/09/01 02:43:07;;;;;;;8.50;8.30;;;13.60;99.90;;;;;;6240712;23;20262;-77
2023/09/01 02:45:36;;;;;;;8.40;8.20;;;13.60;99.90;;;;;;6239777;23;20203;-76
2023/09/01 02:48:04;;;;;;;8.50;8.30;;;13.60;99.90;;;;;;6236340;23;20255;-76
2023/09/01 02:50:31;;;;;;;8.13;7.93;;;13.60;99.90;;;;;;6235325;23;20213;-76
2023/09/01 02:52:58;;;;;;;8.13;7.93;;;13.60;99.90;;;;;;6233267;23;20267;-76
2023/09/01 02:55:25;;;;;;;8.33;8.13;;;13.50;99.90;;;;;;6236419;23;20254;-76
2023/09/01 02:57:51;;;;;;;8.50;8.30;;;13.50;99.90;;;;;;6236038;23;20251;-76
2023/09/01 03:00:21;;;;;;;8.50;8.30;;;13.50;99.90;;;;;;6236700;23;20199;-77
2023/09/01 03:02:50;;;;;;;8.40;8.20;;;13.50;99.90;;;;;;6238037;23;20234;-77
2023/09/01 03:05:17;;;;;;;8.70;8.40;;;13.50;99.90;;;;;;6237214;23;20230;-76
2023/09/01 03:07:44;;;;;;;8.47;8.27;;;13.40;99.90;;;;;;6237796;23;20207;-76
2023/09/01 03:10:11;;;;;;;8.93;8.63;;;13.50;99.90;;;;;;6244831;23;20210;-76
2023/09/01 03:12:39;;;;;;;8.70;8.40;;;13.40;99.90;;;;;;6241098;23;20266;-76
2023/09/01 03:15:09;;;;;;;8.70;8.40;;;13.40;99.90;;;;;;6238207;23;20222;-76
2023/09/01 03:17:36;;;;;;;8.60;8.40;;;13.50;99.90;;;;;;6236668;23;20210;-76
2023/09/01 03:20:08;;;;;;;8.40;8.20;;;13.50;99.90;;;;;;6237546;23;20231;-75
2023/09/01 03:22:35;;;;;;;8.50;8.30;;;13.50;99.90;;;;;;6237914;23;20258;-77
2023/09/01 03:25:02;;;;;;;8.50;8.30;;;13.50;99.90;;;;;;6239640;23;20199;-76
2023/09/01 03:27:30;;;;;;;8.50;8.30;;;13.50;99.90;;;;;;6238157;23;20210;-77
2023/09/01 03:29:57;;;;;;;8.53;8.33;;;13.50;99.90;;;;;;6236606;23;20659;-77
2023/09/01 03:32:24;;;;;;;8.50;8.30;;;13.40;99.90;;;;;;6229473;23;20798;-77
2023/09/01 03:34:51;;;;;;;8.33;8.13;;;13.40;99.90;;;;;;6223059;23;20221;-78
2023/09/01 03:37:20;;;;;;;8.30;8.10;;;13.40;99.90;;;;;;6222794;23;20211;-76
2023/09/01 03:39:47;;;;;;;8.17;7.97;;;13.40;99.90;;;;;;6222441;23;20290;-77
2023/09/01 03:42:14;;;;;;;8.33;8.13;;;13.40;99.90;;;;;;6222945;23;20209;-77
2023/09/01 03:44:41;;;;;;;8.40;8.20;;;13.40;99.90;;;;;;6223457;23;20191;-77
2023/09/01 03:47:08;;;;;;;8.50;8.30;;;13.40;99.90;;;;;;6223674;23;20278;-77
2023/09/01 03:49:34;;;;;;;8.30;8.10;;;13.40;99.90;;;;;;6224609;23;20282;-77
2023/09/01 03:52:02;;;;;;;8.27;8.07;;;13.40;99.90;;;;;;6224305;23;20207;-78
2023/09/01 03:54:30;;;;;;;8.30;8.10;;;13.30;99.90;;;;;;6224724;23;20211;-76
2023/09/01 03:56:57;;;;;;;8.30;8.10;;;13.30;99.90;;;;;;6225249;23;20282;-76
2023/09/01 03:59:24;;;;;;;8.57;8.37;;;13.40;99.90;;;;;;6234667;23;20290;-78
2023/09/01 04:01:51;;;;;;;8.37;8.17;;;13.40;99.90;;;;;;6225138;23;20203;-77
2023/09/01 04:04:19;;;;;;;8.10;7.90;;;13.40;99.90;;;;;;6225126;23;20195;-76
2023/09/01 04:06:46;;;;;;;8.17;7.97;;;13.40;99.90;;;;;;6225274;23;20191;-77
2023/09/01 04:09:14;;;;;;;8.20;8.00;;;13.40;99.90;;;;;;6225090;23;20286;-77
2023/09/01 04:11:42;;;;;;;8.20;8.00;;;13.40;99.90;;;;;;6224270;23;20273;-77
2023/09/01 04:14:11;;;;;;;8.00;7.80;;;13.30;99.90;;;;;;6224184;23;20233;-77
2023/09/01 04:16:39;;;;;;;8.10;7.90;;;13.40;99.90;;;;;;6224289;23;20674;-77
2023/09/01 04:19:06;;;;;;;8.20;8.00;;;13.40;99.90;;;;;;6230509;23;20207;-77
2023/09/01 04:21:33;;;;;;;8.23;8.03;;;13.40;99.90;;;;;;6226688;23;20209;-77
2023/09/01 04:24:00;;;;;;;8.20;8.00;;;13.40;99.90;;;;;;6225119;23;20290;-77
2023/09/01 04:26:27;;;;;;;8.20;8.00;;;13.40;99.90;;;;;;6225361;23;20195;-77
2023/09/01 04:28:55;;;;;;;8.50;8.30;;;13.40;99.90;;;;;;6225653;23;20202;-77
2023/09/01 04:31:28;;;;;;;8.60;8.40;;;13.40;99.90;;;;;;6225293;23;20203;-77
2023/09/01 04:33:56;;;;;;;8.57;8.37;;;13.40;99.90;;;;;;6224426;23;20221;-77
2023/09/01 04:36:23;;;;;;;8.50;8.30;;;13.40;99.90;;;;;;6225476;23;20203;-77
2023/09/01 04:38:52;;;;;;;8.90;8.60;;;13.40;99.90;;;;;;6225209;23;20263;-76
2023/09/01 04:41:19;;;;;;;8.60;8.40;;;13.40;99.90;;;;;;6226087;23;20210;-76
2023/09/01 04:43:46;;;;;;;8.33;8.13;;;13.50;99.90;;;;;;6225175;23;20305;-75
2023/09/01 04:46:14;;;;;;;8.50;8.30;;;13.50;99.90;;;;;;6225570;23;20197;-75
2023/09/01 04:48:42;;;;;;;8.57;8.37;;;13.50;99.90;;;;;;6229260;23;20251;-75
2023/09/01 04:51:09;;;;;;;8.47;8.27;;;13.50;99.90;;;;;;6230213;23;20246;-76
2023/09/01 04:53:36;;;;;;;8.43;8.23;;;13.50;99.90;;;;;;6228979;23;20270;-76
2023/09/01 04:56:03;;;;;;;8.50;8.30;;;13.50;99.90;;;;;;6227338;23;20197;-76
2023/09/01 04:58:30;;;;;;;8.20;8.00;;;13.60;99.90;;;;;;6225522;23;20203;-76
2023/09/01 05:00:57;;;;;;;8.47;8.27;;;13.50;99.90;;;;;;6226827;23;20207;-76
2023/09/01 05:03:26;;;;;;;8.40;8.20;;;13.50;99.90;;;;;;6226508;23;20199;-76
2023/09/01 05:05:53;;;;;;;8.30;8.10;;;13.50;99.90;;;;;;6224737;23;20195;-76
2023/09/01 05:08:20;;;;;;;8.40;8.20;;;13.50;99.90;;;;;;6228956;23;20205;-75
2023/09/01 05:10:47;;;;;;;8.30;8.10;;;13.50;99.90;;;;;;6230273;23;20251;-76
2023/09/01 05:13:14;;;;;;;8.00;7.80;;;13.50;99.90;;;;;;6230089;23;20209;-76
2023/09/01 05:15:41;;;;;;;8.20;8.00;;;13.60;99.90;;;;;;6229261;23;20278;-76
2023/09/01 05:18:08;;;;;;;7.90;7.70;;;13.60;99.90;;;;;;6228221;23;20565;-76
2023/09/01 05:20:36;;;;;;;8.17;7.97;;;13.60;99.90;;;;;;6227438;23;20205;-76
2023/09/01 05:23:04;;;;;;;8.37;8.17;;;13.60;99.90;;;;;;6225491;23;20199;-76
2023/09/01 05:25:32;;;;;;;8.10;7.90;;;13.60;99.90;;;;;;6225341;23;20207;-76
2023/09/01 05:27:59;;;;;;;8.23;8.03;;;13.70;99.90;;;;;;6225096;23;20218;-76
2023/09/01 05:30:26;;;;;;;8.10;7.90;;;13.70;99.90;;;;;;6225181;23;20210;-76
2023/09/01 05:32:53;;;;;;;8.20;8.00;;;13.70;99.90;;;;;;6224988;23;20209;-76
2023/09/01 05:35:20;;;;;;;8.10;7.90;;;13.70;99.90;;;;;;6225253;23;20201;-76
2023/09/01 05:37:49;;;;;;;8.00;7.80;;;13.70;99.90;;;;;;6225312;23;20202;-76
2023/09/01 05:40:17;;;;;;;8.10;7.90;;;13.70;99.90;;;;;;6233639;23;20191;-76
2023/09/01 05:42:44;;;;;;;7.70;7.50;;;13.80;99.90;;;;;;6230961;23;20203;-76
2023/09/01 05:45:11;;;;;;;7.60;7.40;;;13.80;99.90;;;;;;6229810;23;20191;-77
2023/09/01 05:47:38;;;;;;;8.07;7.87;;;13.80;99.90;;;;;;6227125;23;20230;-76
2023/09/01 05:50:06;;;;;;;7.90;7.70;;;13.80;99.90;;;;;;6225816;23;20213;-76
2023/09/01 05:52:33;;;;;;;8.00;7.80;;;13.90;99.90;;;;;;6225908;23;20332;-76
2023/09/01 05:55:02;;;;;;;8.10;7.90;;;13.90;99.90;;;;;;6225200;23;20213;-76
2023/09/01 05:57:29;;;;;;;8.10;7.90;;;13.90;99.90;;;;;;6225775;23;20205;-76
2023/09/01 05:59:58;;;;;;;7.93;7.73;;;13.90;99.90;;;;;;6225661;23;20199;-76
2023/09/01 06:02:41;;;;;;;8.07;7.87;;;14.00;99.90;;;;;;6225281;23;20235;-77
2023/09/01 06:05:11;;;;;;;8.07;7.87;;;14.00;99.90;;;;;;6227584;23;20206;-76
2023/09/01 06:07:38;;;;;;;7.97;7.77;;;14.00;99.90;;;;;;6225499;23;20202;-76
2023/09/01 06:10:09;;;;;;;7.80;7.60;;;14.00;99.90;;;;;;6224559;23;20246;-76
2023/09/01 06:12:36;;;;;;;7.88;7.68;;;14.10;99.90;;;;;;6224652;23;20237;-76
2023/09/01 06:15:03;;;;;;;7.88;7.68;;;14.20;99.90;;;;;;6224574;23;20198;-76
2023/09/01 06:17:30;;;;;;;7.97;7.77;;;14.20;99.90;;;;;;6224961;23;20222;-75
2023/09/01 06:19:58;;;;;;;8.00;7.80;;;14.20;99.90;;;;;;6225163;23;20206;-76
2023/09/01 06:22:26;;;;;;;7.90;7.70;;;14.20;99.90;;;;;;6224302;23;20211;-76
2023/09/01 06:24:53;;;;;;;7.90;7.70;;;14.30;99.90;;;;;;6224900;23;20234;-75
2023/09/01 06:27:23;;;;;;;7.80;7.60;;;14.30;99.90;;;;;;6225350;23;20199;-76
2023/09/01 06:29:55;;;;;;;7.80;7.60;;;14.30;99.90;;;;;;6229469;23;20185;-75
2023/09/01 06:32:22;;;;;;;7.97;7.77;;;14.40;99.90;;;;;;6230218;23;20248;-76
2023/09/01 06:34:49;;;;;;;7.90;7.70;;;14.50;99.90;;;;;;6225061;23;20298;-76
2023/09/01 06:37:16;;;;;;;7.90;7.70;;;14.50;99.90;;;;;;6225380;23;20211;-76
2023/09/01 06:39:43;;;;;;;7.95;7.75;;;14.60;99.90;;;;;;6224580;23;20261;-76
2023/09/01 06:42:11;;;;;;;7.90;7.70;;;14.70;99.90;;;;;;6223660;23;20214;-76
2023/09/01 06:44:40;;;;;;;7.90;7.70;;;14.70;99.90;;;;;;6224397;23;20187;-76
2023/09/01 06:47:07;;;;;;;7.90;7.70;;;14.70;99.90;;;;;;6224779;23;20199;-75
2023/09/01 06:49:34;;;;;;;8.00;7.80;;;14.70;99.90;;;;;;6224401;23;20191;-76
2023/09/01 06:52:01;;;;;;;8.10;7.90;;;14.70;99.90;;;;;;6224513;23;20199;-76
2023/09/01 06:54:28;;;;;;;8.18;7.97;;;14.70;99.90;;;;;;6224737;23;20219;-76
2023/09/01 06:56:55;;;;;;;8.20;8.00;;;14.80;99.90;;;;;;6224618;23;20190;-75
2023/09/01 06:59:22;;;;;;;7.90;7.70;;;14.90;99.90;;;;;;6224483;23;20262;-76
2023/09/01 07:01:50;;;;;;;7.60;7.40;;;14.90;99.90;;;;;;6224506;23;20299;-75
2023/09/01 07:04:17;;;;;;;7.50;7.30;;;15.00;99.90;;;;;;6223603;23;20203;-76
2023/09/01 07:06:44;;;;;;;7.70;7.50;;;15.00;99.90;;;;;;6223854;23;20206;-77
2023/09/01 07:09:11;;;;;;;7.50;7.30;;;15.10;99.90;;;;;;6223873;23;20278;-76
2023/09/01 07:11:38;;;;;;;7.88;7.68;;;15.20;99.90;;;;;;6225733;23;20286;-76
2023/09/01 07:14:05;;;;;;;8.10;7.90;;;15.30;99.90;;;;;;6224423;23;20203;-76
2023/09/01 07:16:32;;;;;;;8.15;7.95;;;15.40;99.90;;;;;;6225199;23;20209;-77
2023/09/01 07:19:01;;;;;;;8.10;7.90;;;15.50;99.90;;;;;;6226357;23;20210;-75
2023/09/01 07:21:27;;;;;;;8.10;7.90;;;15.50;99.90;;;;;;6231823;23;20191;-76
2023/09/01 07:23:54;;;;;;;8.00;7.80;;;15.60;99.90;;;;;;6227262;23;20213;-77
2023/09/01 07:26:21;;;;;;;8.30;8.10;;;15.70;99.90;;;;;;6226735;23;20210;-76
2023/09/01 07:28:48;;;;;;;8.00;7.80;;;15.80;99.90;;;;;;6227093;23;20271;-77
2023/09/01 07:31:15;;;;;;;7.97;7.78;;;15.90;99.90;;;;;;6226464;23;20721;-76
2023/09/01 07:33:43;;;;;;;8.20;8.00;;;16.00;99.90;;;;;;6225399;23;20245;-76
2023/09/01 07:36:12;;;;;;;8.13;7.93;;;16.10;99.90;;;;;;6225392;23;20207;-76
2023/09/01 07:38:39;;;;;;;7.88;7.68;;;16.30;99.90;;;;;;6225286;23;20202;-76
2023/09/01 07:41:08;;;;;;;7.97;7.78;;;16.40;99.90;;;;;;6225879;23;20282;-74
2023/09/01 07:43:35;;;;;;;8.02;7.82;;;16.50;99.90;;;;;;6225999;23;20293;-75
2023/09/01 07:46:03;;;;;;;7.53;7.32;;;16.60;99.90;;;;;;6227387;23;20217;-74
2023/09/01 07:48:30;;;;;;;7.40;7.20;;;16.70;99.90;;;;;;6229295;23;20253;-74
2023/09/01 07:50:57;;;;;;;7.68;7.47;;;16.80;99.90;;;;;;6228546;23;20213;-75
2023/09/01 07:53:25;;;;;;;7.75;7.55;;;16.90;99.90;;;;;;6224897;23;20203;-74
2023/09/01 07:55:52;;;;;;;7.70;7.50;;;17.00;99.90;;;;;;6225149;23;20210;-76
2023/09/01 07:58:20;;;;;;;7.75;7.55;;;17.10;99.90;;;;;;6225028;23;20198;-76
2023/09/01 08:00:47;;;;;;;7.90;7.70;;;17.20;99.90;;;;;;6225803;23;20229;-76
2023/09/01 08:03:14;;;;;;;8.38;8.18;;;17.20;99.90;;;;;;6224675;23;20211;-75
2023/09/01 08:05:41;;;;;;;8.00;7.80;;;17.20;99.90;;;;;;6225247;23;20207;-76
2023/09/01 08:08:12;;;;;;;8.30;8.10;;;17.30;99.90;;;;;;6225704;23;20187;-78
2023/09/01 08:10:40;;;;;;;8.27;8.07;;;17.30;99.90;;;;;;6230433;23;20251;-75
2023/09/01 08:13:08;;;;;;;8.20;8.00;;;17.20;99.90;;;;;;6231631;23;20226;-76
2023/09/01 08:15:35;;;;;;;8.18;7.97;;;17.20;99.90;;;;;;6230191;23;20237;-76
2023/09/01 08:18:02;;;;;;;8.13;7.93;;;17.20;99.90;;;;;;6229706;23;20316;-75
2023/09/01 08:20:29;;;;;;;8.13;7.93;;;17.10;99.90;;;;;;6227189;23;20222;-76
2023/09/01 08:22:56;;;;;;;8.10;7.90;;;17.10;99.90;;;;;;6225304;23;20207;-76
2023/09/01 08:25:23;;;;;;;8.30;8.10;;;17.10;99.90;;;;;;6225186;23;20217;-76
2023/09/01 08:27:52;;;;;;;8.30;8.10;;;17.00;99.90;;;;;;6225368;23;20197;-76
2023/09/01 08:30:19;;;;;;;8.15;7.95;;;17.00;99.90;;;;;;6224895;23;20209;-76
2023/09/01 08:32:46;;;;;;;8.13;7.93;;;17.00;99.90;;;;;;6224924;23;20199;-75
2023/09/01 08:35:13;;;;;;;8.30;8.10;;;16.90;99.90;;;;;;6225277;23;20221;-75
2023/09/01 08:37:41;;;;;;;8.40;8.20;;;17.00;99.90;;;;;;6225393;23;20195;-75
2023/09/01 08:40:10;;;;;;;8.35;8.15;;;17.00;99.90;;;;;;6225313;23;20197;-75
2023/09/01 08:42:45;;;;;;;8.30;8.10;;;17.00;99.90;;;;;;6224001;23;20261;-76
2023/09/01 08:45:14;;;;;;;8.32;8.13;;;17.10;99.90;;;;;;6224776;23;20258;-76
2023/09/01 08:47:46;;;;;;;8.13;7.93;;;17.20;99.90;;;;;;6225061;23;20228;-76
2023/09/01 08:50:13;;;;;;;8.10;7.90;;;17.40;99.90;;;;;;6225315;23;20195;-76
2023/09/01 08:52:42;;;;;;;7.80;7.60;;;17.40;99.90;;;;;;6224544;23;20226;-76
2023/09/01 08:55:10;;;;;;;8.15;7.95;;;17.60;99.90;;;;;;6224954;23;20297;-76
2023/09/01 08:57:38;;;;;;;7.90;7.70;;;17.70;99.90;;;;;;6228660;23;20209;-75
2023/09/01 09:00:08;;;;;;;8.00;7.80;;;17.80;99.90;;;;;;6226411;23;20201;-76
2023/09/01 09:02:36;;;;;;;7.93;7.72;;;17.90;99.90;;;;;;6233429;23;20685;-76
2023/09/01 09:05:04;;;;;;;7.93;7.72;;;17.90;99.90;;;;;;6226003;23;20195;-76
2023/09/01 09:07:31;;;;;;;8.05;7.85;;;18.00;99.90;;;;;;6224758;23;20203;-75
2023/09/01 09:10:00;;;;;;;8.30;8.10;;;18.00;99.90;;;;;;6224409;23;20195;-76
2023/09/01 09:12:37;;;;;;;8.38;8.18;;;18.10;99.90;;;;;;6223973;23;20209;-75
2023/09/01 09:15:06;;;;;;;8.50;8.30;;;18.00;99.90;;;;;;6224129;23;20201;-76
2023/09/01 09:17:44;;;;;;;8.40;8.20;;;18.00;99.90;;;;;;6224626;23;20206;-75
2023/09/01 09:20:12;;;;;;;8.23;8.02;;;18.10;99.90;;;;;;6225004;23;20221;-76
2023/09/01 09:22:59;;;;;;;7.97;7.78;;;18.20;99.90;;;;;;6224310;23;20203;-76
2023/09/01 09:25:28;;;;;;;8.27;8.07;;;18.20;99.90;;;;;;6224805;23;20218;-76
2023/09/01 09:27:56;;;;;;;8.40;8.20;;;18.20;99.90;;;;;;6224585;23;20209;-76
2023/09/01 09:30:25;;;;;;;8.50;8.30;;;18.30;99.90;;;;;;6224534;23;20203;-76
2023/09/01 09:33:03;;;;;;;8.20;8.00;;;18.30;99.90;;;;;;6224703;23;20199;-76
2023/09/01 09:35:30;;;;;;;8.30;8.10;;;18.30;99.90;;;;;;6227908;23;20202;-76
2023/09/01 09:37:59;;;;;;;8.30;8.10;;;18.30;99.90;;;;;;6224760;23;20203;-75
2023/09/01 09:40:26;;;;;;;8.00;7.80;;;18.30;99.90;;;;;;6224820;23;20203;-75
2023/09/01 09:42:53;;;;;;;8.25;8.05;;;18.30;99.90;;;;;;6225364;23;20261;-75
2023/09/01 09:45:31;;;;;;;7.90;7.70;;;18.30;99.90;;;;;;6225574;23;20195;-76
2023/09/01 09:48:02;;;;;;;7.80;7.60;;;18.50;99.90;;;;;;6235937;23;20195;-77
2023/09/01 09:50:30;;;;;;;8.13;7.93;;;18.80;99.90;;;;;;6243766;23;20201;-77
2023/09/01 09:53:03;;;;;;;8.40;8.20;;;19.10;99.90;;;;;;6235842;23;20230;-75
2023/09/01 09:55:31;;;;;;;8.35;8.15;;;19.40;99.90;;;;;;6227273;23;20210;-75
2023/09/01 09:58:05;;;;;;;8.48;8.27;;;19.60;99.90;;;;;;6226195;23;20209;-76
2023/09/01 10:00:33;;;;;;;8.57;8.38;;;19.70;99.90;;;;;;6225906;23;20193;-75
2023/09/01 10:03:03;;;;;;;8.55;8.35;;;19.80;99.90;;;;;;6224390;23;20207;-75
2023/09/01 10:05:32;;;;;;;8.98;8.68;;;19.70;99.90;;;;;;6225614;23;20213;-75
2023/09/01 10:08:02;;;;;;;9.05;8.75;;;19.80;99.90;;;;;;6225291;23;20746;-75
2023/09/01 10:10:33;;;;;;;8.63;8.43;;;19.80;99.90;;;;;;6225785;23;20191;-76
2023/09/01 10:13:03;;;;;;;9.00;8.70;;;19.80;99.90;;;;;;6225359;23;20226;-75
2023/09/01 10:15:32;;;;;;;9.20;8.90;;;19.80;99.90;;;;;;6226913;23;20266;-74
2023/09/01 10:18:03;;;;;;;9.10;8.80;;;19.90;99.90;;;;;;6228167;23;20234;-75
2023/09/01 10:20:31;;;;;;;9.10;8.80;;;20.10;99.90;;;;;;6227753;23;20187;-75
2023/09/01 10:22:59;;;;;;;9.25;8.95;;;20.10;99.90;;;;;;6230093;23;20217;-76
2023/09/01 10:25:26;;;;;;;9.38;9.07;;;20.10;99.90;;;;;;6229245;23;20289;-75
2023/09/01 10:28:08;;;;;;;9.32;9.02;;;20.00;99.90;;;;;;6230048;23;20319;-76
2023/09/01 10:30:37;;;;;;;9.25;8.95;;;20.00;99.90;;;;;;6228695;23;20191;-76
2023/09/01 10:33:08;;;;;;;9.45;9.15;;;20.10;99.90;;;;;;6228167;23;20238;-75
2023/09/01 10:35:44;;;;;;;9.40;9.10;;;20.00;99.90;;;;;;6225242;23;20238;-76
2023/09/01 10:38:15;;;;;;;9.38;9.07;;;20.10;99.90;;;;;;6224879;23;20279;-76
2023/09/01 10:40:48;;;;;;;9.68;9.38;;;20.00;99.90;;;;;;6224973;23;20681;-76
2023/09/01 10:43:53;;;;;;;9.48;9.18;;;20.00;99.90;;;;;;6224541;23;20264;-77
2023/09/01 10:46:27;;;;;;;9.50;9.20;;;19.80;99.90;;;;;;6237972;23;20211;-78
2023/09/01 10:48:58;;;;;;;9.77;9.48;;;19.80;99.90;;;;;;6231335;23;20225;-77
2023/09/01 10:51:28;;;;;;;9.98;9.68;;;19.70;99.90;;;;;;6229796;23;20187;-78
2023/09/01 10:53:56;;;;;;;10.07;9.77;;;19.80;99.90;;;;;;6226683;23;20211;-76
2023/09/01 10:56:24;;;;;;;10.05;9.75;;;20.00;99.90;;;;;;6226829;23;20285;-77
2023/09/01 10:58:52;;;;;;;10.05;9.75;;;20.20;99.90;;;;;;6226916;23;20242;-78
2023/09/01 11:01:31;;;;;;;10.07;9.77;;;20.40;99.90;;;;;;6226895;23;20197;-76
2023/09/01 11:04:33;;;;;;;9.90;9.60;;;20.50;99.90;;;;;;6226711;23;20194;-76
2023/09/01 11:07:06;;;;;;;10.18;9.88;;;20.40;99.90;;;;;;6226329;23;20195;-77
2023/09/01 11:09:56;;;;;;;10.15;9.85;;;20.50;99.90;;;;;;6224989;23;20199;-76
2023/09/01 11:12:31;;;;;;;10.10;9.80;;;20.50;99.90;;;;;;6224448;23;20207;-76
2023/09/01 11:15:01;;;;;;;10.20;9.90;;;20.60;99.90;;;;;;6225653;23;20198;-77
2023/09/01 11:17:45;;;;;;;10.35;10.05;;;20.70;99.90;;;;;;6224788;23;20265;-77
2023/09/01 11:20:19;;;;;;;10.70;10.40;;;20.80;99.90;;;;;;6226964;23;20194;-76
2023/09/01 11:22:47;;;;;;;10.40;10.10;;;21.00;99.90;;;;;;6225719;23;20207;-76
2023/09/01 11:25:16;;;;;;;10.55;10.25;;;21.20;99.90;;;;;;6224066;23;20206;-76
2023/09/01 11:27:45;;;;;;;10.68;10.38;;;21.30;99.90;;;;;;6224220;23;20199;-77
2023/09/01 11:30:13;;;;;;;10.88;10.57;;;21.40;99.90;;;;;;6225055;23;20275;-76
2023/09/01 11:32:40;;;;;;;10.30;10.00;;;21.40;99.90;;;;;;6224596;23;20282;-76
2023/09/01 11:35:09;;;;;;;10.50;10.20;;;21.40;99.90;;;;;;6224786;23;20238;-77
2023/09/01 11:37:41;;;;;;;10.30;10.00;;;21.50;99.90;;;;;;6235057;23;20221;-77
2023/09/01 11:40:12;;;;;;;10.18;9.88;;;21.60;99.90;;;;;;6225616;23;20207;-76
2023/09/01 11:42:41;;;;;;;10.50;10.20;;;21.70;99.90;;;;;;6224478;23;20225;-76
2023/09/01 11:45:10;;;;;;;10.20;9.90;;;21.80;99.90;;;;;;6224685;23;20190;-77
2023/09/01 11:47:38;;;;;;;10.38;10.07;;;21.60;99.90;;;;;;6224854;23;20195;-77
2023/09/01 11:50:06;;;;;;;10.00;9.70;;;21.50;99.90;;;;;;6225054;23;20191;-77
2023/09/01 11:52:51;;;;;;;10.10;9.80;;;21.50;99.90;;;;;;6224053;23;20278;-77
2023/09/01 11:55:36;;;;;;;10.10;9.80;;;21.50;99.90;;;;;;6226294;23;20201;-76
2023/09/01 11:58:04;;;;;;;10.30;10.00;;;21.60;99.90;;;;;;6226164;23;20218;-77
2023/09/01 12:00:34;;;;;;;10.55;10.25;;;21.90;99.90;;;;;;6227375;23;20195;-77
2023/09/01 12:03:03;;;;;;;10.52;10.23;;;21.90;99.90;;;;;;6226937;23;20211;-77
2023/09/01 12:05:36;;;;;;;10.23;9.93;;;22.00;99.90;;;;;;6226864;23;20206;-77
2023/09/01 12:08:07;;;;;;;10.40;10.10;;;22.00;99.90;;;;;;6225726;23;20237;-78
2023/09/01 12:10:34;;;;;;;10.55;10.25;;;22.20;99.90;;;;;;6225653;23;20191;-77
2023/09/01 12:13:07;;;;;;;11.00;10.70;;;22.60;99.90;;;;;;6225530;23;20210;-77
2023/09/01 12:15:34;;;;;;;10.40;10.10;;;22.90;99.90;;;;;;6225372;23;20210;-78
2023/09/01 12:18:30;;;;;;;10.38;10.07;;;23.20;99.90;;;;;;6229564;23;20271;-78
2023/09/01 12:20:57;;;;;;;10.68;10.38;;;23.20;99.90;;;;;;6229918;23;20199;-78
2023/09/01 12:23:30;;;;;;;10.70;10.40;;;23.10;99.90;;;;;;6227486;23;20230;-77
2023/09/01 12:25:58;;;;;;;10.40;10.10;;;23.10;99.90;;;;;;6227258;23;20278;-77
2023/09/01 12:28:27;;;;;;;10.10;9.80;;;23.30;99.90;;;;;;6234185;23;20207;-75
2023/09/01 12:30:55;;;;;;;10.00;9.70;;;23.40;99.90;;;;;;6230737;23;20209;-77
2023/09/01 12:33:22;;;;;;;10.70;10.40;;;23.40;99.90;;;;;;6227788;23;20210;-77
2023/09/01 12:35:50;;;;;;;10.52;10.23;;;23.30;99.90;;;;;;6227521;23;20199;-77
2023/09/01 12:38:17;;;;;;;10.30;10.00;;;23.30;99.90;;;;;;6227421;23;20209;-77
2023/09/01 12:40:46;;;;;;;10.60;10.30;;;23.30;99.90;;;;;;6227273;23;20194;-76
2023/09/01 12:43:13;;;;;;;10.52;10.23;;;23.40;99.90;;;;;;6227314;23;20297;-77
2023/09/01 12:45:42;;;;;;;10.57;10.27;;;23.40;99.90;;;;;;6227183;23;20198;-78
2023/09/01 12:48:09;;;;;;;10.40;10.10;;;23.30;99.90;;;;;;6228953;23;20655;-77
2023/09/01 12:50:36;;;;;;;10.25;9.95;;;23.20;99.90;;;;;;6227137;23;20207;-77
2023/09/01 12:53:04;;;;;;;10.73;10.43;;;23.10;99.90;;;;;;6231676;23;20284;-77